KGLW/GLW METAR and TAF weather

Enter ICAO airport designator
Station Type Date Time Source
KGLW METAR 2019/10/22 16:35 UTC NOAA

KGLW 221635Z AUTO 25014G20KT 10SM CLR 16/05 A2995 RMK AO2 T01600053


Station Type Date Time Source
KGLW Decoded METAR 2019/10/22 16:35 UTC NOAA

Glasgow, Glasgow Municipal Airport, KY, United States (KGLW) 37-01-54N 085-57-13W
Oct 22, 2019 - 12:35 PM EDT / 2019.10.22 1635 UTC
Wind: from the WSW (250 degrees) at 16 MPH (14 KT) gusting to 23 MPH (20 KT):0
Visibility: 10 mile(s):0
Sky conditions: clear
Temperature: 60.8 F (16.0 C)
Dew Point: 41.5 F (5.3 C)
Relative Humidity: 48%
Pressure (altimeter): 29.95 in. Hg (1014 hPa)
ob: KGLW 221635Z AUTO 25014G20KT 10SM CLR 16/05 A2995 RMK AO2 T01600053
cycle: 16

Station Type Date Time Source
KGLW TAF UTC NOAA

Error!

Example: see airport list